Time,TemperatureF,DewpointF,PressureIn,WindDirection,WindDirectionDegrees,WindSpeedMPH,WindSpeedGustMPH,Humidity,HourlyPrecipIn,Conditions,Clouds,dailyrainin,SolarRadiationWatts/m^2,SoftwareType,DateUTC
2013-01-25 00:01:00,29.0,24.0,-100.00,North,8,0.0,3.0,81,0.00,,,0.00,0.000000,,2013-01-25 08:01:00,
2013-01-25 00:11:00,29.0,24.0,-100.00,North,8,0.0,3.0,81,0.00,,,0.00,0.000000,,2013-01-25 08:11:00,
2013-01-25 00:21:00,29.0,24.0,-100.00,North,8,0.0,3.0,81,0.00,,,0.00,0.000000,,2013-01-25 08:21:00,
2013-01-25 00:52:00,28.0,23.0,-100.00,NNW,338,0.0,4.0,82,0.00,,,0.00,0.000000,,2013-01-25 08:52:00,
2013-01-25 01:01:00,28.0,23.0,-100.00,NNW,338,0.0,4.0,82,0.00,,,0.00,0.000000,,2013-01-25 09:01:00,
2013-01-25 01:11:00,28.0,23.0,-100.00,NNW,338,0.0,4.0,82,0.00,,,0.00,0.000000,,2013-01-25 09:11:00,
2013-01-25 01:21:00,28.0,23.0,-100.00,NNW,338,0.0,4.0,82,0.00,,,0.00,0.000000,,2013-01-25 09:21:00,
2013-01-25 01:52:00,28.0,23.0,-100.00,NNW,345,0.0,4.0,82,0.00,,,0.00,0.000000,,2013-01-25 09:52:00,
2013-01-25 02:01:00,28.0,23.0,-100.00,NNW,345,0.0,4.0,82,0.00,,,0.00,0.000000,,2013-01-25 10:01:00,
2013-01-25 02:11:00,28.0,23.0,-100.00,NNW,345,0.0,4.0,82,0.00,,,0.00,0.000000,,2013-01-25 10:11:00,
2013-01-25 02:21:00,28.0,23.0,-100.00,NNW,345,0.0,4.0,82,0.00,,,0.00,0.000000,,2013-01-25 10:21:00,
2013-01-25 02:52:00,28.0,24.0,-100.00,NNW,332,0.0,2.0,86,0.00,,,0.00,0.000000,,2013-01-25 10:52:00,
2013-01-25 03:02:00,28.0,24.0,-100.00,NNW,332,0.0,2.0,86,0.00,,,0.00,0.000000,,2013-01-25 11:02:00,
2013-01-25 03:11:00,28.0,24.0,-100.00,NNW,332,0.0,2.0,86,0.00,,,0.00,0.000000,,2013-01-25 11:11:00,
2013-01-25 03:21:00,28.0,24.0,-100.00,NNW,332,0.0,2.0,86,0.00,,,0.00,0.000000,,2013-01-25 11:21:00,
2013-01-25 03:52:00,28.0,28.0,-100.00,NNE,13,0.0,2.0,100,0.00,,,-99.99,0.000000,,2013-01-25 11:52:00,
2013-01-25 04:02:00,28.0,28.0,-100.00,NNE,13,0.0,2.0,100,0.00,,,-99.99,0.000000,,2013-01-25 12:02:00,
2013-01-25 04:11:00,28.0,28.0,-100.00,NNE,13,0.0,2.0,100,0.00,,,-99.99,0.000000,,2013-01-25 12:11:00,
2013-01-25 04:21:00,28.0,28.0,-100.00,NNE,13,0.0,2.0,100,0.00,,,-99.99,0.000000,,2013-01-25 12:21:00,
2013-01-25 04:53:00,27.0,22.0,-100.00,SW,230,0.0,3.0,82,0.00,,,0.00,0.000000,,2013-01-25 12:53:00,
2013-01-25 05:02:00,27.0,22.0,-100.00,SW,230,0.0,3.0,82,0.00,,,0.00,0.000000,,2013-01-25 13:02:00,
2013-01-25 05:11:00,27.0,22.0,-100.00,SW,230,0.0,3.0,82,0.00,,,0.00,0.000000,,2013-01-25 13:11:00,
2013-01-25 05:21:00,27.0,22.0,-100.00,SW,230,0.0,3.0,82,0.00,,,0.00,0.000000,,2013-01-25 13:21:00,
2013-01-25 05:52:00,27.0,23.0,-100.00,ESE,105,0.0,7.0,83,0.00,,,0.00,0.000000,,2013-01-25 13:52:00,
2013-01-25 06:02:00,27.0,23.0,-100.00,ESE,105,0.0,7.0,83,0.00,,,0.00,0.000000,,2013-01-25 14:02:00,
2013-01-25 06:12:00,27.0,23.0,-100.00,ESE,105,0.0,7.0,83,0.00,,,0.00,0.000000,,2013-01-25 14:12:00,
2013-01-25 06:22:00,27.0,23.0,-100.00,ESE,105,0.0,7.0,83,0.00,,,0.00,0.000000,,2013-01-25 14:22:00,
2013-01-25 06:53:00,27.0,23.0,-100.00,South,187,0.0,4.0,83,0.00,,,0.00,0.000000,,2013-01-25 14:53:00,
2013-01-25 07:02:00,27.0,23.0,-100.00,South,187,0.0,4.0,83,0.00,,,0.00,0.000000,,2013-01-25 15:02:00,
2013-01-25 07:12:00,27.0,23.0,-100.00,South,187,0.0,4.0,83,0.00,,,0.00,0.000000,,2013-01-25 15:12:00,
2013-01-25 07:22:00,27.0,23.0,-100.00,South,187,0.0,4.0,83,0.00,,,0.00,0.000000,,2013-01-25 15:22:00,
2013-01-25 07:53:00,27.0,22.0,-100.00,SE,137,0.0,5.0,81,0.00,,,-99.99,0.000000,,2013-01-25 15:53:00,
2013-01-25 08:03:00,27.0,22.0,-100.00,SE,137,0.0,5.0,81,0.00,,,-99.99,0.000000,,2013-01-25 16:03:00,
2013-01-25 08:11:00,27.0,22.0,-100.00,SE,137,0.0,5.0,81,0.00,,,-99.99,0.000000,,2013-01-25 16:11:00,
2013-01-25 08:22:00,27.0,22.0,-100.00,SE,137,0.0,5.0,81,0.00,,,-99.99,0.000000,,2013-01-25 16:22:00,
2013-01-25 08:53:00,28.0,22.0,-100.00,East,93,2.0,3.0,79,0.00,,,0.00,8.000000,,2013-01-25 16:53:00,
2013-01-25 09:02:00,28.0,22.0,-100.00,East,93,2.0,3.0,79,0.00,,,0.00,8.000000,,2013-01-25 17:02:00,
2013-01-25 09:11:00,28.0,22.0,-100.00,East,93,2.0,3.0,79,0.00,,,0.00,8.000000,,2013-01-25 17:11:00,
2013-01-25 09:22:00,28.0,22.0,-100.00,East,93,2.0,3.0,79,0.00,,,0.00,8.000000,,2013-01-25 17:22:00,
2013-01-25 09:53:00,29.0,22.0,-100.00,NW,320,0.0,7.0,76,0.00,,,0.00,33.000000,,2013-01-25 17:53:00,
2013-01-25 10:02:00,29.0,22.0,-100.00,NW,320,0.0,7.0,76,0.00,,,0.00,33.000000,,2013-01-25 18:02:00,
2013-01-25 10:11:00,29.0,22.0,-100.00,NW,320,0.0,7.0,76,0.00,,,0.00,33.000000,,2013-01-25 18:11:00,
2013-01-25 10:23:00,29.0,22.0,-100.00,NW,320,0.0,7.0,76,0.00,,,0.00,33.000000,,2013-01-25 18:23:00,
2013-01-25 10:52:00,30.0,22.0,-100.00,WSW,240,4.0,8.0,72,0.00,,,0.00,67.000000,,2013-01-25 18:52:00,
2013-01-25 11:02:00,30.0,22.0,-100.00,WSW,240,4.0,8.0,72,0.00,,,0.00,67.000000,,2013-01-25 19:02:00,
2013-01-25 11:12:00,30.0,22.0,-100.00,WSW,240,4.0,8.0,72,0.00,,,0.00,67.000000,,2013-01-25 19:12:00,
2013-01-25 11:21:00,30.0,22.0,-100.00,WSW,240,4.0,8.0,72,0.00,,,0.00,67.000000,,2013-01-25 19:21:00,
2013-01-25 11:53:00,37.0,23.0,-100.00,SSW,209,4.0,8.0,57,0.00,,,0.00,355.000000,,2013-01-25 19:53:00,
2013-01-25 12:02:00,37.0,23.0,-100.00,SSW,209,4.0,8.0,57,0.00,,,0.00,355.000000,,2013-01-25 20:02:00,
2013-01-25 12:52:00,39.0,22.0,-100.00,East,90,0.0,7.0,51,0.00,,,0.00,494.000000,,2013-01-25 20:52:00,
2013-01-25 13:02:00,39.0,22.0,-100.00,East,90,0.0,7.0,51,0.00,,,0.00,494.000000,,2013-01-25 21:02:00,
2013-01-25 13:11:00,39.0,22.0,-100.00,East,90,0.0,7.0,51,0.00,,,0.00,494.000000,,2013-01-25 21:11:00,
2013-01-25 13:22:00,39.0,22.0,-100.00,East,90,0.0,7.0,51,0.00,,,0.00,494.000000,,2013-01-25 21:22:00,
2013-01-25 13:52:00,36.0,24.0,-100.00,East,88,0.0,5.0,61,0.00,,,0.00,443.000000,,2013-01-25 21:52:00,
2013-01-25 14:02:00,36.0,24.0,-100.00,East,88,0.0,5.0,61,0.00,,,0.00,443.000000,,2013-01-25 22:02:00,
2013-01-25 14:11:00,36.0,24.0,-100.00,East,88,0.0,5.0,61,0.00,,,0.00,443.000000,,2013-01-25 22:11:00,
2013-01-25 14:21:00,36.0,24.0,-100.00,East,88,0.0,5.0,61,0.00,,,0.00,443.000000,,2013-01-25 22:21:00,
2013-01-25 14:52:00,35.0,23.0,-100.00,NNE,20,3.0,7.0,61,0.00,,,0.00,285.000000,,2013-01-25 22:52:00,
2013-01-25 15:02:00,35.0,23.0,-100.00,NNE,20,3.0,7.0,61,0.00,,,0.00,285.000000,,2013-01-25 23:02:00,
2013-01-25 15:11:00,35.0,23.0,-100.00,NNE,20,3.0,7.0,61,0.00,,,0.00,285.000000,,2013-01-25 23:11:00,
2013-01-25 15:22:00,35.0,23.0,-100.00,NNE,20,3.0,7.0,61,0.00,,,0.00,285.000000,,2013-01-25 23:22:00,
2013-01-25 15:52:00,33.0,21.0,-100.00,NE,45,1.0,5.0,62,0.00,,,0.00,138.000000,,2013-01-25 23:52:00,
2013-01-25 16:01:00,33.0,21.0,-100.00,NE,45,1.0,5.0,62,0.00,,,0.00,138.000000,,2013-01-26 00:01:00,
2013-01-25 16:11:00,33.0,21.0,-100.00,NE,45,1.0,5.0,62,0.00,,,0.00,138.000000,,2013-01-26 00:11:00,
2013-01-25 16:22:00,33.0,21.0,-100.00,NE,45,1.0,5.0,62,0.00,,,0.00,138.000000,,2013-01-26 00:22:00,
2013-01-25 16:53:00,32.0,22.0,-100.00,NNE,28,0.0,4.0,67,0.00,,,0.00,56.000000,,2013-01-26 00:53:00,
2013-01-25 17:01:00,32.0,22.0,-100.00,NNE,28,0.0,4.0,67,0.00,,,0.00,56.000000,,2013-01-26 01:01:00,
2013-01-25 17:11:00,32.0,22.0,-100.00,NNE,28,0.0,4.0,67,0.00,,,0.00,56.000000,,2013-01-26 01:11:00,
2013-01-25 17:22:00,32.0,22.0,-100.00,NNE,28,0.0,4.0,67,0.00,,,0.00,56.000000,,2013-01-26 01:22:00,
2013-01-25 17:52:00,33.0,24.0,-100.00,NNE,26,0.0,3.0,70,0.00,,,0.00,6.000000,,2013-01-26 01:52:00,
2013-01-25 18:01:00,33.0,24.0,-100.00,NNE,26,0.0,3.0,70,0.00,,,0.00,6.000000,,2013-01-26 02:01:00,
2013-01-25 18:11:00,33.0,24.0,-100.00,NNE,26,0.0,3.0,70,0.00,,,0.00,6.000000,,2013-01-26 02:11:00,
2013-01-25 18:22:00,33.0,24.0,-100.00,NNE,26,0.0,3.0,70,0.00,,,0.00,6.000000,,2013-01-26 02:22:00,
2013-01-25 18:52:00,32.0,25.0,-100.00,NNW,342,0.0,5.0,74,0.00,,,0.00,0.000000,,2013-01-26 02:52:00,
2013-01-25 19:01:00,32.0,25.0,-100.00,NNW,342,0.0,5.0,74,0.00,,,0.00,0.000000,,2013-01-26 03:01:00,
2013-01-25 19:11:00,32.0,25.0,-100.00,NNW,342,0.0,5.0,74,0.00,,,0.00,0.000000,,2013-01-26 03:11:00,
2013-01-25 19:21:00,32.0,25.0,-100.00,NNW,342,0.0,5.0,74,0.00,,,0.00,0.000000,,2013-01-26 03:21:00,
2013-01-25 19:52:00,31.0,24.0,-100.00,North,5,1.0,4.0,76,0.00,,,-99.99,0.000000,,2013-01-26 03:52:00,
2013-01-25 20:01:00,31.0,24.0,-100.00,North,5,1.0,4.0,76,0.00,,,-99.99,0.000000,,2013-01-26 04:01:00,
2013-01-25 20:12:00,31.0,24.0,-100.00,North,5,1.0,4.0,76,0.00,,,-99.99,0.000000,,2013-01-26 04:12:00,
2013-01-25 20:21:00,31.0,24.0,-100.00,North,5,1.0,4.0,76,0.00,,,-99.99,0.000000,,2013-01-26 04:21:00,
2013-01-25 20:52:00,30.0,25.0,-100.00,NNE,16,2.0,6.0,80,0.00,,,0.00,0.000000,,2013-01-26 04:52:00,
2013-01-25 21:03:00,30.0,25.0,-100.00,NNE,16,2.0,6.0,80,0.00,,,0.00,0.000000,,2013-01-26 05:03:00,
2013-01-25 21:12:00,30.0,25.0,-100.00,NNE,16,2.0,6.0,80,0.00,,,0.00,0.000000,,2013-01-26 05:12:00,
2013-01-25 21:22:00,30.0,25.0,-100.00,NNE,16,2.0,6.0,80,0.00,,,0.00,0.000000,,2013-01-26 05:22:00,
2013-01-25 21:52:00,31.0,27.0,-100.00,SSW,206,0.0,5.0,84,0.00,,,0.00,0.000000,,2013-01-26 05:52:00,
2013-01-25 22:02:00,31.0,27.0,-100.00,SSW,206,0.0,5.0,84,0.00,,,0.00,0.000000,,2013-01-26 06:02:00,
2013-01-25 22:11:00,31.0,27.0,-100.00,SSW,206,0.0,5.0,84,0.00,,,0.00,0.000000,,2013-01-26 06:11:00,
2013-01-25 22:21:00,31.0,27.0,-100.00,SSW,206,0.0,5.0,84,0.00,,,0.00,0.000000,,2013-01-26 06:21:00,
2013-01-25 22:52:00,31.0,26.0,-100.00,SW,234,0.0,5.0,81,0.00,,,0.00,0.000000,,2013-01-26 06:52:00,
2013-01-25 23:01:00,31.0,26.0,-100.00,SW,234,0.0,5.0,81,0.00,,,0.00,0.000000,,2013-01-26 07:01:00,
2013-01-25 23:11:00,31.0,26.0,-100.00,SW,234,0.0,5.0,81,0.00,,,0.00,0.000000,,2013-01-26 07:11:00,
2013-01-25 23:21:00,31.0,26.0,-100.00,SW,234,0.0,5.0,81,0.00,,,0.00,0.000000,,2013-01-26 07:21:00,
2013-01-25 23:52:00,31.0,27.0,-100.00,North,4,0.0,0.0,84,0.00,,,0.00,0.000000,,2013-01-26 07:52:00,